Time;durP1;ratioP1;P1;durP2;ratioP2;P2;SDS_P1;SDS_P2;PMS_P1;PMS_P2;Temp;Humidity;BMP_temperature;BMP_pressure;BME280_temperature;BME280_humidity;BME280_pressure;Samples;Min_cycle;Max_cycle;Signal;HPM_P1;HPM_P2
2021/05/11 00:02:49;;;;;;;7.90;2.00;;;15.10;99.60;;;;;;6326644;22;20419;-94
2021/05/11 00:06:20;;;;;;;7.07;1.83;;;15.10;98.40;;;;;;6231550;23;20387;-94
2021/05/11 00:10:01;;;;;;;8.20;2.40;;;15.10;99.00;;;;;;6170897;23;20410;-95
2021/05/11 00:13:19;;;;;;;9.48;2.42;;;15.00;98.20;;;;;;6165006;23;20410;-96
2021/05/11 00:27:30;;;;;;;7.00;1.80;;;14.80;99.20;;;;;;6336866;22;20372;-95
2021/05/11 00:31:18;;;;;;;8.50;1.85;;;15.00;97.90;;;;;;6306611;22;20471;-96
2021/05/11 00:35:19;;;;;;;8.73;2.20;;;15.00;97.70;;;;;;6229526;22;20403;-95
2021/05/11 00:38:53;;;;;;;7.90;1.98;;;15.10;98.70;;;;;;6052394;23;20529;-96
2021/05/11 00:42:32;;;;;;;7.90;2.10;;;15.10;98.40;;;;;;6013782;23;20866;-94
2021/05/11 01:07:32;;;;;;;10.30;2.25;;;14.20;99.80;;;;;;6109420;23;20491;-96
2021/05/11 01:10:45;;;;;;;7.43;2.10;;;14.00;99.70;;;;;;6025251;23;20382;-95
2021/05/11 01:18:06;;;;;;;8.68;1.92;;;13.90;99.80;;;;;;6033790;23;20386;-95
2021/05/11 01:21:16;;;;;;;9.00;2.13;;;14.00;99.30;;;;;;6002567;23;20405;-94
2021/05/11 01:24:34;;;;;;;10.20;2.22;;;13.80;99.90;;;;;;6026240;23;20840;-95
2021/05/11 01:28:13;;;;;;;9.25;1.88;;;13.90;99.90;;;;;;6018421;23;20428;-96
2021/05/11 01:32:12;;;;;;;11.18;2.20;;;13.70;99.50;;;;;;6038765;23;20399;-95
2021/05/11 01:46:34;;;;;;;8.48;2.13;;;14.20;98.20;;;;;;5935499;24;20422;-95
2021/05/11 02:22:37;;;;;;;9.80;1.75;;;14.20;97.10;;;;;;6271641;22;20380;-95
2021/05/11 02:25:03;;;;;;;11.15;2.05;;;14.30;97.20;;;;;;6290807;22;20951;-94
2021/05/11 02:28:23;;;;;;;11.25;2.08;;;14.20;97.10;;;;;;6276241;22;20399;-96
2021/05/11 02:31:59;;;;;;;9.20;1.92;;;14.00;97.30;;;;;;6364010;22;20422;-96
2021/05/11 02:34:28;;;;;;;7.03;1.85;;;14.10;96.80;;;;;;6240510;23;20419;-95
2021/05/11 04:18:41;;;;;;;4.10;1.60;;;13.90;94.50;;;;;;6279732;22;20374;-96
2021/05/11 05:09:19;;;;;;;4.75;1.35;;;15.70;91.60;;;;;;6297351;22;20451;-96
2021/05/11 05:12:07;;;;;;;4.53;1.40;;;15.90;90.60;;;;;;6249114;23;20391;-96
2021/05/11 05:15:16;;;;;;;4.93;1.60;;;16.10;90.10;;;;;;6267944;23;20430;-96
2021/05/11 05:18:21;;;;;;;5.68;1.40;;;16.30;88.70;;;;;;6265858;22;20376;-94
2021/05/11 05:21:31;;;;;;;5.75;1.60;;;16.50;88.80;;;;;;6263160;23;20398;-95
2021/05/11 05:24:41;;;;;;;4.25;1.40;;;16.60;87.00;;;;;;6264919;23;20388;-96
2021/05/11 05:28:07;;;;;;;5.53;1.60;;;16.80;87.60;;;;;;6176371;23;20407;-96
2021/05/11 05:31:02;;;;;;;6.97;1.50;;;16.90;87.60;;;;;;6173666;23;20476;-96
2021/05/11 05:34:02;;;;;;;4.37;1.20;;;17.00;87.00;;;;;;6113754;23;20410;-96
2021/05/11 05:37:55;;;;;;;8.02;1.67;;;17.20;86.70;;;;;;6169151;23;20378;-96
2021/05/11 05:41:22;;;;;;;4.67;1.27;;;17.40;88.40;;;;;;6177717;23;20478;-96
2021/05/11 05:44:08;;;;;;;4.65;1.58;;;17.70;85.30;;;;;;6237847;23;20410;-96
2021/05/11 05:47:10;;;;;;;8.40;1.55;;;17.80;83.40;;;;;;6240240;23;20377;-96
2021/05/11 07:06:26;;;;;;;8.18;1.17;;;28.00;33.00;;;;;;6294542;22;20396;-95
2021/05/11 07:09:01;;;;;;;6.30;1.30;;;27.40;36.50;;;;;;6331302;22;20380;-96
2021/05/11 07:14:05;;;;;;;4.80;1.00;;;26.50;38.60;;;;;;6342201;22;20361;-95
2021/05/11 07:16:33;;;;;;;6.10;1.30;;;27.20;36.50;;;;;;6314543;22;20377;-95
2021/05/11 07:19:03;;;;;;;4.57;1.30;;;27.30;36.60;;;;;;6314943;22;20428;-95
2021/05/11 07:22:25;;;;;;;5.70;1.40;;;27.00;36.20;;;;;;6297569;22;20419;-96
2021/05/11 08:32:48;;;;;;;3.42;1.08;;;24.40;39.70;;;;;;6298001;22;20372;-95
2021/05/11 08:35:44;;;;;;;6.50;2.07;;;24.20;38.40;;;;;;6308918;22;20408;-94
2021/05/11 11:28:13;;;;;;;11.73;1.40;;;26.00;45.90;;;;;;6293022;22;20388;-96
2021/05/11 11:31:25;;;;;;;9.40;1.40;;;26.30;46.40;;;;;;6295567;22;20477;-95
2021/05/11 11:33:52;;;;;;;6.75;1.75;;;26.50;43.00;;;;;;6291868;22;20405;-96
2021/05/11 11:36:33;;;;;;;5.30;1.60;;;26.10;41.80;;;;;;6289825;22;20568;-96
2021/05/11 11:39:03;;;;;;;9.83;1.73;;;25.60;43.90;;;;;;6297223;22;20446;-96
2021/05/11 11:41:34;;;;;;;9.18;1.70;;;25.30;42.30;;;;;;6302622;22;20402;-96
2021/05/11 11:44:01;;;;;;;8.75;1.45;;;25.50;46.40;;;;;;6285408;22;20405;-96
2021/05/11 11:46:29;;;;;;;10.95;1.55;;;26.00;42.30;;;;;;6285469;22;20453;-95
2021/05/11 11:49:16;;;;;;;8.23;1.60;;;26.20;45.70;;;;;;6292449;22;20373;-95
2021/05/11 12:00:19;;;;;;;6.78;1.60;;;25.70;43.30;;;;;;6315320;22;20862;-96
2021/05/11 12:02:55;;;;;;;6.93;1.50;;;25.60;44.90;;;;;;6285098;22;20892;-93
2021/05/11 12:05:24;;;;;;;7.68;1.50;;;25.60;43.50;;;;;;6283963;22;20383;-93
2021/05/11 12:10:25;;;;;;;4.80;1.42;;;25.70;45.60;;;;;;6324333;22;20365;-89
2021/05/11 12:12:53;;;;;;;5.72;1.50;;;26.00;45.10;;;;;;6347184;22;20873;-92
2021/05/11 12:15:21;;;;;;;8.40;1.63;;;26.20;44.20;;;;;;6317400;22;20432;-96
2021/05/11 12:18:32;;;;;;;4.53;1.50;;;26.30;46.20;;;;;;6319860;22;20367;-90
2021/05/11 12:21:01;;;;;;;4.88;1.70;;;26.20;43.80;;;;;;6357866;22;20408;-90
2021/05/11 12:23:29;;;;;;;4.28;1.50;;;25.80;47.70;;;;;;6368223;22;20353;-92
2021/05/11 12:26:03;;;;;;;8.10;1.60;;;25.70;46.20;;;;;;6356502;22;20379;-90
2021/05/11 12:28:38;;;;;;;14.80;1.60;;;25.50;46.20;;;;;;6355244;22;20419;-91
2021/05/11 12:31:10;;;;;;;7.00;1.67;;;25.60;49.10;;;;;;6351129;22;20379;-91
2021/05/11 12:33:47;;;;;;;6.63;1.30;;;25.70;49.00;;;;;;6320122;22;20738;-91
2021/05/11 12:36:21;;;;;;;6.17;1.40;;;25.80;46.80;;;;;;6351759;22;20407;-92
2021/05/11 12:39:07;;;;;;;6.80;1.50;;;26.10;49.40;;;;;;6326313;22;20377;-91
2021/05/11 12:42:17;;;;;;;8.20;1.80;;;26.90;46.70;;;;;;6356202;22;20388;-92
2021/05/11 12:45:14;;;;;;;5.47;1.50;;;27.70;46.50;;;;;;6318720;22;20393;-96
2021/05/11 12:47:53;;;;;;;12.98;1.95;;;26.90;45.40;;;;;;6318862;22;20736;-95
2021/05/11 12:50:33;;;;;;;5.13;1.40;;;27.00;46.90;;;;;;6292130;22;20441;-92
2021/05/11 12:53:31;;;;;;;7.18;1.50;;;27.10;48.10;;;;;;6314766;22;20376;-93
2021/05/11 13:39:38;;;;;;;7.00;1.90;;;25.00;44.60;;;;;;4970710;28;20435;-95
2021/05/11 13:42:05;;;;;;;11.15;1.90;;;24.90;44.10;;;;;;4963316;28;20425;-96
2021/05/11 13:45:29;;;;;;;;;;;;;;;;;;;;;
2021/05/11 13:48:21;;;;;;;7.63;1.50;;;24.80;45.70;;;;;;5026973;23;20451;-96
2021/05/11 13:51:00;;;;;;;7.80;1.70;;;24.60;46.50;;;;;;4992090;28;20487;-96
2021/05/11 13:53:31;;;;;;;9.63;1.67;;;24.30;46.10;;;;;;4982050;28;20431;-96
2021/05/11 14:04:29;;;;;;;10.50;1.88;;;24.20;45.70;;;;;;5015954;28;20417;-93
2021/05/11 14:06:56;;;;;;;9.73;1.92;;;24.30;49.10;;;;;;4994165;28;20426;-93
2021/05/11 14:09:25;;;;;;;10.20;1.70;;;24.10;46.90;;;;;;4992698;28;20422;-93
2021/05/11 14:11:52;;;;;;;6.40;1.63;;;24.20;47.20;;;;;;4997376;28;20964;-93
2021/05/11 14:14:20;;;;;;;7.63;1.70;;;24.00;45.40;;;;;;4980381;28;20429;-93
2021/05/11 14:16:48;;;;;;;6.35;1.50;;;23.90;45.90;;;;;;4980617;28;20785;-94
2021/05/11 14:19:18;;;;;;;12.63;1.80;;;23.80;48.10;;;;;;4980548;28;20438;-94
2021/05/11 14:21:46;;;;;;;10.60;1.90;;;23.60;47.60;;;;;;4980395;28;20453;-92
2021/05/11 14:24:13;;;;;;;10.68;2.20;;;23.60;47.50;;;;;;4980160;28;20472;-93
2021/05/11 14:26:42;;;;;;;7.40;1.63;;;23.60;45.90;;;;;;4980694;28;20430;-93
2021/05/11 14:29:09;;;;;;;6.13;1.80;;;23.50;46.70;;;;;;4981073;28;20446;-93
2021/05/11 14:31:37;;;;;;;7.22;1.92;;;23.50;45.70;;;;;;4980244;28;20926;-93
2021/05/11 14:34:06;;;;;;;7.88;1.60;;;23.40;47.20;;;;;;4979781;28;20461;-95
2021/05/11 14:36:33;;;;;;;6.10;1.80;;;23.40;46.90;;;;;;4979995;28;20913;-93
2021/05/11 14:39:00;;;;;;;8.05;1.80;;;23.30;49.30;;;;;;4980214;28;20442;-94
2021/05/11 14:41:27;;;;;;;7.70;1.63;;;23.30;46.20;;;;;;4979957;28;20430;-94
2021/05/11 14:43:54;;;;;;;8.98;1.58;;;23.30;46.30;;;;;;4980383;28;20423;-94
2021/05/11 14:46:21;;;;;;;15.30;2.00;;;23.30;47.20;;;;;;4980077;28;20422;-95
2021/05/11 14:48:50;;;;;;;9.13;2.30;;;23.20;48.40;;;;;;4979638;28;20480;-95
2021/05/11 14:51:17;;;;;;;11.35;1.83;;;23.10;48.00;;;;;;4980272;28;20427;-93
2021/05/11 14:53:46;;;;;;;7.63;1.70;;;23.10;48.70;;;;;;4980100;28;20414;-94
2021/05/11 14:56:13;;;;;;;11.30;1.90;;;23.10;48.10;;;;;;4980188;28;20426;-95
2021/05/11 14:58:40;;;;;;;6.15;1.75;;;23.10;47.30;;;;;;4979670;28;20442;-95
2021/05/11 15:07:33;;;;;;;7.78;1.60;;;22.90;48.00;;;;;;5700390;23;20429;31
2021/05/11 15:14:20;;;;;;;9.32;1.83;;;22.80;48.80;;;;;;5818086;23;20390;-96
2021/05/11 15:22:52;;;;;;;10.88;2.45;;;22.60;48.90;;;;;;5606135;23;20488;-96
2021/05/11 15:25:36;;;;;;;7.35;1.92;;;22.60;47.20;;;;;;4990780;28;20419;-96
2021/05/11 15:28:05;;;;;;;7.97;1.77;;;22.60;48.10;;;;;;4978738;28;20466;-96
2021/05/11 15:30:34;;;;;;;11.73;1.60;;;22.50;47.60;;;;;;4981324;28;20428;-95
2021/05/11 15:33:03;;;;;;;8.60;1.63;;;22.50;47.20;;;;;;4979325;28;20418;-94
2021/05/11 15:35:35;;;;;;;8.75;1.75;;;22.50;46.80;;;;;;4980478;28;20778;-96
2021/05/11 15:38:09;;;;;;;10.73;2.40;;;22.50;47.40;;;;;;4979454;28;20454;-96
2021/05/11 15:40:38;;;;;;;7.80;2.00;;;22.40;48.70;;;;;;4984878;28;20426;-95
2021/05/11 15:43:46;;;;;;;10.30;2.25;;;22.30;48.10;;;;;;5001477;28;20399;-95
2021/05/11 16:30:46;;;;;;;;;;;;;;;;;;;;;
2021/05/11 16:33:49;;;;;;;6.90;1.58;;;22.20;49.20;;;;;;4974033;28;20449;-96
2021/05/11 16:36:55;;;;;;;7.50;1.80;;;22.20;47.30;;;;;;5012981;28;20418;-96
2021/05/11 16:39:51;;;;;;;13.65;1.77;;;22.30;48.70;;;;;;5443272;23;20442;-96
2021/05/11 16:42:37;;;;;;;7.10;1.70;;;22.20;48.70;;;;;;5007029;23;20430;-92
2021/05/11 16:46:15;;;;;;;7.50;1.80;;;22.00;49.90;;;;;;4990808;28;20780;-94
2021/05/11 16:49:13;;;;;;;7.70;1.75;;;22.10;49.50;;;;;;4994761;28;20447;-96
2021/05/11 16:51:41;;;;;;;10.55;1.90;;;21.90;47.50;;;;;;4995404;28;20429;-94
2021/05/11 16:54:45;;;;;;;8.75;1.58;;;21.80;49.80;;;;;;4991568;28;20443;-95
2021/05/11 16:57:56;;;;;;;6.78;1.98;;;21.70;49.00;;;;;;5248881;23;20432;-96
2021/05/11 17:01:06;;;;;;;10.63;1.67;;;21.50;49.20;;;;;;3200011;23;22019;-96
2021/05/11 17:03:34;;;;;;;8.80;1.92;;;21.40;48.90;;;;;;4964384;28;20459;-96
2021/05/11 17:06:03;;;;;;;9.10;1.70;;;21.40;49.90;;;;;;4950722;28;20424;-95
2021/05/11 17:08:31;;;;;;;5.40;1.47;;;21.40;48.60;;;;;;4966791;28;20424;-96
2021/05/11 17:11:07;;;;;;;10.00;1.80;;;21.40;49.20;;;;;;4953142;28;20435;-96
2021/05/11 17:13:38;;;;;;;8.00;1.77;;;21.30;48.10;;;;;;4965892;28;20444;-96
2021/05/11 17:16:14;;;;;;;7.93;1.60;;;21.30;49.10;;;;;;4961124;28;20506;-96
2021/05/11 17:24:54;;;;;;;13.52;2.10;;;21.00;49.10;;;;;;5156663;23;20933;-93
2021/05/11 17:27:21;;;;;;;11.50;1.83;;;20.90;49.10;;;;;;4996832;28;20427;-90
2021/05/11 17:29:48;;;;;;;14.40;2.08;;;20.90;49.10;;;;;;4989331;28;20414;-91
2021/05/11 17:32:16;;;;;;;8.93;1.80;;;20.80;49.40;;;;;;4982316;28;20430;-88
2021/05/11 17:34:44;;;;;;;9.70;1.83;;;20.70;49.20;;;;;;4977430;28;20426;-89
2021/05/11 17:37:12;;;;;;;12.18;1.73;;;20.70;49.40;;;;;;4995032;28;20766;-92
2021/05/11 17:39:39;;;;;;;7.00;1.80;;;20.70;50.30;;;;;;4977711;28;20449;-89
2021/05/11 17:42:08;;;;;;;6.40;1.52;;;20.60;50.80;;;;;;4977262;28;20485;-89
2021/05/11 17:44:36;;;;;;;9.02;1.70;;;20.50;50.60;;;;;;4977680;28;20426;-89
2021/05/11 17:47:05;;;;;;;6.87;1.67;;;20.50;49.50;;;;;;4998121;28;20438;-89
2021/05/11 17:49:32;;;;;;;8.40;1.60;;;20.40;53.70;;;;;;4980466;28;20433;-95
2021/05/11 17:51:59;;;;;;;7.90;1.70;;;20.30;50.60;;;;;;4981083;28;20901;-90
2021/05/11 17:54:27;;;;;;;9.40;1.70;;;20.30;50.80;;;;;;4981222;28;20486;-93
2021/05/11 17:56:54;;;;;;;7.22;1.50;;;20.20;54.10;;;;;;4980661;28;20437;-94
2021/05/11 17:59:23;;;;;;;6.90;1.73;;;20.20;51.10;;;;;;4986752;28;20505;-96
2021/05/11 18:02:02;;;;;;;10.18;1.90;;;20.10;51.70;;;;;;4974391;28;20437;-94
2021/05/11 18:04:57;;;;;;;7.72;1.70;;;20.10;50.80;;;;;;4976667;28;20417;-96
2021/05/11 18:07:45;;;;;;;13.07;2.63;;;19.90;53.60;;;;;;4992297;28;20429;-96
2021/05/11 18:11:01;;;;;;;12.05;2.95;;;19.60;62.90;;;;;;4963866;28;20973;-95
2021/05/11 18:14:17;;;;;;;8.45;2.60;;;19.30;67.70;;;;;;4956710;28;20424;-96
2021/05/11 18:18:03;;;;;;;12.93;2.70;;;19.00;70.10;;;;;;5027025;28;20400;-96
2021/05/11 18:21:02;;;;;;;9.68;2.85;;;18.80;72.40;;;;;;5013423;28;20507;-95
2021/05/11 18:24:24;;;;;;;8.48;3.78;;;18.60;77.60;;;;;;4927721;29;20935;-96
2021/05/11 18:27:36;;;;;;;8.02;3.50;;;18.20;89.10;;;;;;4951169;29;20417;-96
2021/05/11 18:30:25;;;;;;;11.07;4.60;;;17.80;93.30;;;;;;4832482;29;20500;-94
2021/05/11 18:32:57;;;;;;;9.85;4.78;;;17.50;98.60;;;;;;4843941;29;20475;-96
2021/05/11 18:35:46;;;;;;;13.27;4.85;;;17.40;99.90;;;;;;4836645;29;20501;-96
2021/05/11 18:38:46;;;;;;;11.03;4.27;;;17.20;99.90;;;;;;4839173;29;20417;-96
2021/05/11 18:41:39;;;;;;;9.00;4.60;;;17.10;99.90;;;;;;4844243;29;20438;-96
2021/05/11 18:44:12;;;;;;;12.23;4.88;;;16.80;99.90;;;;;;4852220;29;20442;-94
2021/05/11 18:46:51;;;;;;;15.63;4.68;;;16.80;99.90;;;;;;4854677;29;20465;-95
2021/05/11 18:49:22;;;;;;;10.65;4.97;;;16.70;99.90;;;;;;4854769;29;20503;-94
2021/05/11 18:52:03;;;;;;;12.60;5.15;;;16.50;99.90;;;;;;4855274;29;20469;-95
2021/05/11 18:54:58;;;;;;;13.23;5.15;;;16.40;99.90;;;;;;4867362;29;20426;-96
2021/05/11 18:57:50;;;;;;;13.10;5.30;;;16.20;99.90;;;;;;4866238;29;20831;-96
2021/05/11 19:00:36;;;;;;;14.82;5.60;;;16.20;99.90;;;;;;4856033;29;20510;-94
2021/05/11 19:03:05;;;;;;;11.15;4.90;;;16.00;99.90;;;;;;4852732;29;20889;-94
2021/05/11 19:05:43;;;;;;;9.80;4.97;;;16.00;99.90;;;;;;4849890;29;20521;-94
2021/05/11 19:08:23;;;;;;;10.23;5.30;;;16.00;99.90;;;;;;4902959;29;20414;-96
2021/05/11 19:10:51;;;;;;;11.70;5.07;;;16.00;99.90;;;;;;4920772;29;20512;-95
2021/05/11 19:13:46;;;;;;;9.82;5.70;;;15.90;99.90;;;;;;4923337;29;20513;-96
2021/05/11 19:16:17;;;;;;;10.77;5.50;;;15.80;99.90;;;;;;4926003;29;20429;-96
2021/05/11 19:18:44;;;;;;;11.17;5.50;;;15.70;99.90;;;;;;4924677;29;20433;-96
2021/05/11 19:21:15;;;;;;;10.30;5.90;;;15.70;99.90;;;;;;4921650;29;20436;-96
2021/05/11 19:23:46;;;;;;;11.52;5.78;;;15.60;99.90;;;;;;4924900;29;21050;-94
2021/05/11 19:26:14;;;;;;;11.52;6.15;;;15.60;99.90;;;;;;4967418;28;20460;-96
2021/05/11 19:28:43;;;;;;;8.65;6.22;;;15.40;99.90;;;;;;5005034;28;20761;-96
2021/05/11 19:31:12;;;;;;;10.18;6.80;;;15.30;99.90;;;;;;5018191;28;20440;-94
2021/05/11 19:33:42;;;;;;;13.13;7.03;;;15.10;99.90;;;;;;5003761;28;20563;-96
2021/05/11 19:36:11;;;;;;;16.27;7.38;;;15.10;99.90;;;;;;5003576;28;20421;-96
2021/05/11 19:39:03;;;;;;;14.75;7.10;;;15.00;99.90;;;;;;5026142;28;20399;-96
2021/05/11 19:41:33;;;;;;;9.77;7.07;;;14.90;99.90;;;;;;5005837;28;20485;-95
2021/05/11 19:44:02;;;;;;;10.93;7.25;;;14.80;99.90;;;;;;5008025;28;20492;-95
2021/05/11 19:46:53;;;;;;;12.97;7.30;;;14.80;99.90;;;;;;5008243;28;20421;-96
2021/05/11 19:49:23;;;;;;;11.25;7.30;;;14.70;99.90;;;;;;5008425;28;20971;-94
2021/05/11 19:51:59;;;;;;;12.30;7.65;;;14.60;99.90;;;;;;5028992;28;20429;-96
2021/05/11 19:54:34;;;;;;;10.57;8.00;;;14.70;99.90;;;;;;5012966;28;20429;-96
2021/05/11 19:57:13;;;;;;;11.63;9.60;;;14.60;99.90;;;;;;4994301;28;20483;-96
2021/05/11 20:00:08;;;;;;;11.57;8.67;;;14.60;99.90;;;;;;5015600;28;20443;-95
2021/05/11 20:02:36;;;;;;;10.82;8.40;;;14.50;99.90;;;;;;5012119;28;20490;-96
2021/05/11 20:05:25;;;;;;;15.53;8.30;;;14.50;99.90;;;;;;4997246;28;20421;-95
2021/05/11 20:13:22;;;;;;;12.77;9.18;;;14.40;99.90;;;;;;5005259;28;20466;-96
2021/05/11 20:16:14;;;;;;;12.77;9.57;;;14.30;99.90;;;;;;4984041;28;20449;-96
2021/05/11 20:18:41;;;;;;;16.13;10.13;;;14.20;99.90;;;;;;4985616;28;20477;-96
2021/05/11 20:21:16;;;;;;;13.45;10.65;;;14.20;99.90;;;;;;4976723;28;20446;-94
2021/05/11 20:27:55;;;;;;;16.05;12.32;;;14.00;99.90;;;;;;5010390;28;20413;-96
2021/05/11 20:30:22;;;;;;;21.00;13.10;;;13.90;99.90;;;;;;4988674;28;20427;-95
2021/05/11 20:32:51;;;;;;;17.42;13.27;;;14.00;99.90;;;;;;4981529;28;20426;-96
2021/05/11 20:35:21;;;;;;;21.05;14.63;;;14.00;99.90;;;;;;4979188;28;20794;-95
2021/05/11 20:38:04;;;;;;;18.98;14.80;;;13.90;99.90;;;;;;4988980;28;20546;-96
2021/05/11 20:40:34;;;;;;;22.05;15.00;;;13.90;99.90;;;;;;5002453;28;20526;-96
2021/05/11 20:43:05;;;;;;;23.77;15.88;;;13.80;99.90;;;;;;4987980;28;20928;-96
2021/05/11 20:45:33;;;;;;;20.95;16.27;;;13.70;99.90;;;;;;4983208;28;20426;-96
2021/05/11 20:50:35;;;;;;;23.30;17.50;;;13.70;99.90;;;;;;5113668;23;20453;-96
2021/05/11 20:53:19;;;;;;;24.60;18.17;;;13.60;99.90;;;;;;5024976;28;20425;-96
2021/05/11 20:56:10;;;;;;;21.85;18.83;;;13.60;99.90;;;;;;5097907;23;20433;-96
2021/05/11 20:58:41;;;;;;;23.25;19.13;;;13.60;99.90;;;;;;5007662;28;20420;-96
2021/05/11 21:01:28;;;;;;;23.25;18.83;;;13.60;99.90;;;;;;5007144;28;20439;-96
2021/05/11 21:04:04;;;;;;;27.58;18.60;;;13.60;99.90;;;;;;4996421;28;20456;-96
2021/05/11 21:06:43;;;;;;;23.38;19.48;;;13.70;99.90;;;;;;5020796;28;20436;-96
2021/05/11 21:09:17;;;;;;;24.10;19.92;;;13.70;99.90;;;;;;5046157;23;20461;-96
2021/05/11 21:12:01;;;;;;;26.67;19.95;;;13.60;99.90;;;;;;5014337;28;20428;-96
2021/05/11 21:14:30;;;;;;;25.90;20.20;;;13.60;99.90;;;;;;4993329;28;20438;-96
2021/05/11 21:17:11;;;;;;;28.60;20.08;;;13.60;99.90;;;;;;4991472;28;20425;-96
2021/05/11 21:19:53;;;;;;;26.33;19.88;;;13.50;99.90;;;;;;4990751;28;20434;-96
2021/05/11 21:22:24;;;;;;;28.45;21.88;;;13.50;99.90;;;;;;4991700;28;20430;-96
2021/05/11 21:24:54;;;;;;;26.42;21.00;;;13.50;99.90;;;;;;4995850;28;20415;-96
2021/05/11 21:27:21;;;;;;;23.48;20.83;;;13.40;99.90;;;;;;5004993;28;20426;-95
2021/05/11 21:29:48;;;;;;;27.00;21.08;;;13.50;99.90;;;;;;5004322;28;20510;-96
2021/05/11 21:32:15;;;;;;;25.53;21.40;;;13.50;99.90;;;;;;4998665;28;20426;-96
2021/05/11 21:34:43;;;;;;;24.93;21.83;;;13.40;99.90;;;;;;4998885;28;20417;-96
2021/05/11 21:37:10;;;;;;;30.83;20.02;;;13.40;99.90;;;;;;4989258;28;20509;-94
2021/05/11 21:39:38;;;;;;;25.83;21.63;;;13.40;99.90;;;;;;4981605;28;20429;-95
2021/05/11 21:42:06;;;;;;;27.73;22.25;;;13.40;99.90;;;;;;4981940;28;20481;-96
2021/05/11 21:44:34;;;;;;;27.63;22.08;;;13.40;99.90;;;;;;4998935;28;20422;-95
2021/05/11 21:47:05;;;;;;;24.98;21.30;;;13.40;99.90;;;;;;4982006;28;20770;-95
2021/05/11 21:49:33;;;;;;;25.80;21.80;;;13.30;99.90;;;;;;4981253;28;20430;-96
2021/05/11 21:52:00;;;;;;;27.83;22.67;;;13.40;99.90;;;;;;4981952;28;20509;-96
2021/05/11 21:54:27;;;;;;;31.40;23.92;;;13.30;99.90;;;;;;4982841;28;20449;-95
2021/05/11 21:56:54;;;;;;;31.45;25.58;;;13.30;99.90;;;;;;4981380;28;20441;-95
2021/05/11 21:59:21;;;;;;;29.80;24.85;;;13.30;99.90;;;;;;4981509;28;20429;-95
2021/05/11 22:01:48;;;;;;;32.87;25.60;;;13.20;99.90;;;;;;4982081;28;20517;-96
2021/05/11 22:04:15;;;;;;;30.63;24.83;;;13.10;99.90;;;;;;4994907;28;20819;-93
2021/05/11 22:06:45;;;;;;;31.58;26.10;;;13.10;99.90;;;;;;5001481;28;20428;-96
2021/05/11 22:09:15;;;;;;;33.15;25.30;;;13.10;99.90;;;;;;5002753;28;20490;-95
2021/05/11 22:11:42;;;;;;;30.67;26.55;;;13.10;99.90;;;;;;5006319;28;20511;-96
2021/05/11 22:14:10;;;;;;;31.08;25.35;;;13.10;99.90;;;;;;5002172;28;20488;-96
2021/05/11 22:16:38;;;;;;;28.15;25.08;;;13.10;99.90;;;;;;5002549;28;20424;-95
2021/05/11 22:19:08;;;;;;;31.10;27.70;;;13.10;99.90;;;;;;5002340;28;20511;-96
2021/05/11 22:21:36;;;;;;;32.38;25.88;;;13.10;99.90;;;;;;5005076;28;20521;-96
2021/05/11 22:24:07;;;;;;;33.42;26.05;;;13.00;99.90;;;;;;5002263;28;20931;-96
2021/05/11 22:26:37;;;;;;;32.97;26.53;;;13.00;99.90;;;;;;5002887;28;20804;-96
2021/05/11 22:29:05;;;;;;;32.03;24.95;;;13.00;99.90;;;;;;5003698;28;20492;-96
2021/05/11 22:31:35;;;;;;;32.78;26.48;;;12.90;99.90;;;;;;5004202;28;20515;-96
2021/05/11 22:34:04;;;;;;;31.35;26.73;;;12.90;99.90;;;;;;5004370;28;20950;-96
2021/05/11 22:36:32;;;;;;;30.65;26.55;;;12.90;99.90;;;;;;5003716;28;20981;-95
2021/05/11 22:39:00;;;;;;;32.13;27.70;;;12.90;99.90;;;;;;5002852;28;20447;-96
2021/05/11 22:41:29;;;;;;;33.70;29.08;;;12.80;99.90;;;;;;5001505;28;20447;-96
2021/05/11 22:44:00;;;;;;;32.60;28.70;;;12.80;99.90;;;;;;5002108;28;20421;-96
2021/05/11 22:46:31;;;;;;;31.95;27.75;;;12.80;99.90;;;;;;5004134;28;20479;-96
2021/05/11 22:49:04;;;;;;;33.67;29.40;;;12.80;99.90;;;;;;5009404;28;20428;-96
2021/05/11 22:51:52;;;;;;;35.05;28.98;;;12.80;99.90;;;;;;5005874;28;20423;-96
2021/05/11 22:54:49;;;;;;;33.83;28.75;;;12.80;99.90;;;;;;5033220;28;20484;-96
2021/05/11 22:57:17;;;;;;;32.00;28.42;;;12.90;99.90;;;;;;5011649;28;20491;-96
2021/05/11 22:59:53;;;;;;;31.67;28.25;;;12.90;99.90;;;;;;4999922;28;20425;-96
2021/05/11 23:02:20;;;;;;;36.45;29.00;;;12.90;99.90;;;;;;5006250;28;20933;-96
2021/05/11 23:04:50;;;;;;;34.83;29.00;;;12.90;99.90;;;;;;5000672;28;20416;-96
2021/05/11 23:07:22;;;;;;;37.60;30.10;;;12.80;99.90;;;;;;5016438;23;20435;-96
2021/05/11 23:10:09;;;;;;;38.80;29.95;;;12.80;99.90;;;;;;4984178;28;20463;-96
2021/05/11 23:12:56;;;;;;;39.65;32.70;;;12.70;99.90;;;;;;4986102;28;20452;-96
2021/05/11 23:18:08;;;;;;;38.95;31.85;;;12.60;99.90;;;;;;4992854;28;20489;-96
2021/05/11 23:28:24;;;;;;;40.03;32.73;;;12.70;99.90;;;;;;4978609;28;20452;-96
2021/05/11 23:31:02;;;;;;;39.75;32.78;;;12.60;99.90;;;;;;4965149;28;20432;-96
2021/05/11 23:33:29;;;;;;;41.25;34.22;;;12.60;99.90;;;;;;4969174;28;20488;-96
2021/05/11 23:35:56;;;;;;;42.08;33.88;;;12.50;99.90;;;;;;4964932;28;20432;-96
2021/05/11 23:38:23;;;;;;;41.95;32.47;;;12.50;99.90;;;;;;4986551;28;20498;-96
2021/05/11 23:40:55;;;;;;;42.72;33.88;;;12.60;99.90;;;;;;4983363;28;20444;-96
2021/05/11 23:43:39;;;;;;;42.90;34.53;;;12.50;99.90;;;;;;4973866;28;20456;-96
2021/05/11 23:46:09;;;;;;;44.78;35.35;;;12.50;99.90;;;;;;4990302;28;20507;-96
2021/05/11 23:48:46;;;;;;;45.33;36.53;;;12.50;99.90;;;;;;4988729;28;20435;-96
2021/05/11 23:51:17;;;;;;;45.42;36.90;;;12.50;99.90;;;;;;4987193;28;20417;-96
2021/05/11 23:53:53;;;;;;;45.80;36.43;;;12.40;99.90;;;;;;5019048;23;20422;-96
2021/05/11 23:56:21;;;;;;;44.95;35.67;;;12.40;99.90;;;;;;4988042;28;20968;-96
2021/05/11 23:59:12;;;;;;;47.83;38.22;;;12.30;99.90;;;;;;4991715;28;20417;-96
